sensor_id;sensor_type;location;lat;lon;timestamp;pressure;altitude;pressure_sealevel;temperature;humidity
80693;BME280;70055;39.436;-77.514;2023-12-29T00:00:11;98569.41;;;8.63;52.24
80693;BME280;70055;39.436;-77.514;2023-12-29T00:02:40;98567.58;;;8.97;51.94
80693;BME280;70055;39.436;-77.514;2023-12-29T00:05:08;98572.64;;;7.47;53.38
80693;BME280;70055;39.436;-77.514;2023-12-29T00:07:37;98578.04;;;7.85;53.58
80693;BME280;70055;39.436;-77.514;2023-12-29T00:10:07;98579.95;;;8.06;52.59
80693;BME280;70055;39.436;-77.514;2023-12-29T00:12:36;98579.14;;;7.92;53.17
80693;BME280;70055;39.436;-77.514;2023-12-29T00:15:06;98577.69;;;7.96;53.00
80693;BME280;70055;39.436;-77.514;2023-12-29T00:17:35;98582.02;;;7.60;52.79
80693;BME280;70055;39.436;-77.514;2023-12-29T00:20:04;98584.07;;;8.30;51.59
80693;BME280;70055;39.436;-77.514;2023-12-29T00:22:31;98587.03;;;7.90;52.16
80693;BME280;70055;39.436;-77.514;2023-12-29T00:25:00;98585.86;;;8.54;50.54
80693;BME280;70055;39.436;-77.514;2023-12-29T00:27:28;98586.07;;;9.63;49.38
80693;BME280;70055;39.436;-77.514;2023-12-29T00:29:58;98587.84;;;8.98;49.74
80693;BME280;70055;39.436;-77.514;2023-12-29T00:32:27;98588.41;;;9.22;49.48
80693;BME280;70055;39.436;-77.514;2023-12-29T00:34:55;98592.25;;;9.34;48.73
80693;BME280;70055;39.436;-77.514;2023-12-29T00:37:23;98596.13;;;8.87;48.73
80693;BME280;70055;39.436;-77.514;2023-12-29T00:39:51;98597.11;;;9.26;49.11
80693;BME280;70055;39.436;-77.514;2023-12-29T00:42:21;98593.72;;;9.77;48.12
80693;BME280;70055;39.436;-77.514;2023-12-29T00:44:50;98596.46;;;8.66;48.86
80693;BME280;70055;39.436;-77.514;2023-12-29T00:47:20;98595.54;;;8.55;49.46
80693;BME280;70055;39.436;-77.514;2023-12-29T00:49:49;98597.81;;;8.00;49.85
80693;BME280;70055;39.436;-77.514;2023-12-29T00:52:18;98587.31;;;9.20;47.65
80693;BME280;70055;39.436;-77.514;2023-12-29T00:54:46;98602.17;;;7.82;49.59
80693;BME280;70055;39.436;-77.514;2023-12-29T00:57:14;98598.79;;;8.51;48.51
80693;BME280;70055;39.436;-77.514;2023-12-29T00:59:46;98602.46;;;8.12;49.58
80693;BME280;70055;39.436;-77.514;2023-12-29T01:02:15;98599.18;;;7.77;49.25
80693;BME280;70055;39.436;-77.514;2023-12-29T01:04:44;98590.53;;;9.06;48.30
80693;BME280;70055;39.436;-77.514;2023-12-29T01:07:12;98589.58;;;8.77;48.73
80693;BME280;70055;39.436;-77.514;2023-12-29T01:09:40;98592.34;;;8.89;48.34
80693;BME280;70055;39.436;-77.514;2023-12-29T01:12:09;98597.13;;;6.82;50.18
80693;BME280;70055;39.436;-77.514;2023-12-29T01:14:37;98595.50;;;6.09;52.69
80693;BME280;70055;39.436;-77.514;2023-12-29T01:17:07;98596.06;;;6.56;52.66
80693;BME280;70055;39.436;-77.514;2023-12-29T01:19:35;98601.65;;;5.94;53.41
80693;BME280;70055;39.436;-77.514;2023-12-29T01:22:04;98598.47;;;6.47;52.69
80693;BME280;70055;39.436;-77.514;2023-12-29T01:24:32;98597.06;;;7.45;51.48
80693;BME280;70055;39.436;-77.514;2023-12-29T01:27:00;98600.25;;;5.34;55.48
80693;BME280;70055;39.436;-77.514;2023-12-29T01:29:28;98597.46;;;6.22;55.31
80693;BME280;70055;39.436;-77.514;2023-12-29T01:31:57;98592.43;;;6.23;55.21
80693;BME280;70055;39.436;-77.514;2023-12-29T01:34:25;98588.39;;;7.20;53.71
80693;BME280;70055;39.436;-77.514;2023-12-29T01:36:55;98592.09;;;5.63;56.07
80693;BME280;70055;39.436;-77.514;2023-12-29T01:39:23;98586.09;;;7.34;52.50
80693;BME280;70055;39.436;-77.514;2023-12-29T01:41:51;98585.58;;;7.48;51.15
80693;BME280;70055;39.436;-77.514;2023-12-29T01:44:22;98580.96;;;8.46;49.89
80693;BME280;70055;39.436;-77.514;2023-12-29T01:46:51;98579.20;;;7.82;51.07
80693;BME280;70055;39.436;-77.514;2023-12-29T01:49:22;98574.74;;;7.20;51.63
80693;BME280;70055;39.436;-77.514;2023-12-29T01:51:54;98574.63;;;5.50;56.34
80693;BME280;70055;39.436;-77.514;2023-12-29T01:54:24;98570.45;;;6.68;54.19
80693;BME280;70055;39.436;-77.514;2023-12-29T01:56:56;98575.24;;;7.21;51.48
80693;BME280;70055;39.436;-77.514;2023-12-29T01:59:25;98577.49;;;6.48;51.87
80693;BME280;70055;39.436;-77.514;2023-12-29T02:01:56;98578.19;;;7.75;51.17
80693;BME280;70055;39.436;-77.514;2023-12-29T02:04:26;98587.20;;;5.67;54.20
80693;BME280;70055;39.436;-77.514;2023-12-29T02:06:55;98590.09;;;4.94;57.94
80693;BME280;70055;39.436;-77.514;2023-12-29T02:09:23;98585.70;;;5.19;56.16
80693;BME280;70055;39.436;-77.514;2023-12-29T02:11:51;98583.08;;;6.96;53.76
80693;BME280;70055;39.436;-77.514;2023-12-29T02:14:20;98583.70;;;5.58;57.11
80693;BME280;70055;39.436;-77.514;2023-12-29T02:16:56;98577.47;;;7.01;53.26
80693;BME280;70055;39.436;-77.514;2023-12-29T02:19:37;98582.38;;;5.99;54.80
80693;BME280;70055;39.436;-77.514;2023-12-29T02:22:08;98581.60;;;7.73;50.79
80693;BME280;70055;39.436;-77.514;2023-12-29T02:24:37;98580.13;;;8.20;49.16
80693;BME280;70055;39.436;-77.514;2023-12-29T02:27:15;98571.91;;;9.30;47.30
80693;BME280;70055;39.436;-77.514;2023-12-29T02:29:53;98565.14;;;9.13;45.84
80693;BME280;70055;39.436;-77.514;2023-12-29T02:32:24;98561.54;;;9.43;45.46
80693;BME280;70055;39.436;-77.514;2023-12-29T02:34:54;98561.64;;;9.80;44.92
80693;BME280;70055;39.436;-77.514;2023-12-29T02:37:25;98566.53;;;9.92;44.96
80693;BME280;70055;39.436;-77.514;2023-12-29T02:39:55;98564.59;;;9.77;44.91
80693;BME280;70055;39.436;-77.514;2023-12-29T02:42:28;98568.78;;;10.13;43.79
80693;BME280;70055;39.436;-77.514;2023-12-29T02:44:57;98569.41;;;9.83;43.82
80693;BME280;70055;39.436;-77.514;2023-12-29T02:47:26;98566.68;;;9.96;44.28
80693;BME280;70055;39.436;-77.514;2023-12-29T02:49:55;98564.97;;;10.01;43.17
80693;BME280;70055;39.436;-77.514;2023-12-29T02:52:26;98570.01;;;8.98;44.97
80693;BME280;70055;39.436;-77.514;2023-12-29T02:54:55;98568.31;;;10.10;43.52
80693;BME280;70055;39.436;-77.514;2023-12-29T02:57:23;98569.45;;;9.93;43.86
80693;BME280;70055;39.436;-77.514;2023-12-29T02:59:51;98572.75;;;9.09;45.40
80693;BME280;70055;39.436;-77.514;2023-12-29T03:02:21;98572.38;;;9.37;44.10
80693;BME280;70055;39.436;-77.514;2023-12-29T03:04:52;98572.02;;;9.24;44.32
80693;BME280;70055;39.436;-77.514;2023-12-29T03:07:20;98571.56;;;9.17;44.94
80693;BME280;70055;39.436;-77.514;2023-12-29T03:09:48;98575.92;;;7.56;49.66
80693;BME280;70055;39.436;-77.514;2023-12-29T03:12:17;98570.28;;;8.18;47.95
80693;BME280;70055;39.436;-77.514;2023-12-29T03:14:45;98565.01;;;8.55;46.67
80693;BME280;70055;39.436;-77.514;2023-12-29T03:17:13;98566.81;;;9.04;45.85
80693;BME280;70055;39.436;-77.514;2023-12-29T03:19:42;98565.19;;;9.65;44.40
80693;BME280;70055;39.436;-77.514;2023-12-29T03:22:10;98565.82;;;9.67;44.73
80693;BME280;70055;39.436;-77.514;2023-12-29T03:24:41;98567.41;;;9.38;44.39
80693;BME280;70055;39.436;-77.514;2023-12-29T03:27:09;98571.89;;;9.80;43.96
80693;BME280;70055;39.436;-77.514;2023-12-29T03:29:39;98576.56;;;9.94;43.48
80693;BME280;70055;39.436;-77.514;2023-12-29T03:32:07;98581.89;;;9.58;43.61
80693;BME280;70055;39.436;-77.514;2023-12-29T03:34:38;98583.08;;;10.01;43.84
80693;BME280;70055;39.436;-77.514;2023-12-29T03:37:07;98589.68;;;9.91;43.36
80693;BME280;70055;39.436;-77.514;2023-12-29T03:39:35;98594.41;;;9.21;44.49
80693;BME280;70055;39.436;-77.514;2023-12-29T03:42:03;98599.02;;;10.27;42.81
80693;BME280;70055;39.436;-77.514;2023-12-29T03:44:31;98602.20;;;9.38;44.35
80693;BME280;70055;39.436;-77.514;2023-12-29T03:47:01;98602.15;;;9.81;43.66
80693;BME280;70055;39.436;-77.514;2023-12-29T03:49:29;98600.58;;;9.94;43.39
80693;BME280;70055;39.436;-77.514;2023-12-29T03:51:57;98600.55;;;10.11;42.62
80693;BME280;70055;39.436;-77.514;2023-12-29T03:54:26;98602.11;;;10.73;41.50
80693;BME280;70055;39.436;-77.514;2023-12-29T03:56:56;98601.05;;;10.82;41.36
80693;BME280;70055;39.436;-77.514;2023-12-29T03:59:25;98604.18;;;10.89;41.32
80693;BME280;70055;39.436;-77.514;2023-12-29T04:01:53;98604.48;;;10.80;42.00
80693;BME280;70055;39.436;-77.514;2023-12-29T04:04:21;98603.97;;;9.50;44.58
80693;BME280;70055;39.436;-77.514;2023-12-29T04:06:49;98601.57;;;10.27;43.63
80693;BME280;70055;39.436;-77.514;2023-12-29T04:09:19;98600.47;;;10.35;42.98
80693;BME280;70055;39.436;-77.514;2023-12-29T04:11:46;98602.32;;;10.40;42.37
80693;BME280;70055;39.436;-77.514;2023-12-29T04:14:15;98603.77;;;10.18;42.77
80693;BME280;70055;39.436;-77.514;2023-12-29T04:16:44;98597.70;;;10.46;42.62
80693;BME280;70055;39.436;-77.514;2023-12-29T04:19:13;98591.00;;;9.89;43.02
80693;BME280;70055;39.436;-77.514;2023-12-29T04:21:42;98590.63;;;8.98;45.08
80693;BME280;70055;39.436;-77.514;2023-12-29T04:24:09;98590.73;;;10.25;42.45
80693;BME280;70055;39.436;-77.514;2023-12-29T04:26:37;98591.34;;;10.41;41.71
80693;BME280;70055;39.436;-77.514;2023-12-29T04:29:07;98597.58;;;8.73;45.44
80693;BME280;70055;39.436;-77.514;2023-12-29T04:31:36;98593.34;;;10.25;42.45
80693;BME280;70055;39.436;-77.514;2023-12-29T04:34:05;98590.84;;;9.81;43.44
80693;BME280;70055;39.436;-77.514;2023-12-29T04:36:33;98592.03;;;9.63;42.49
80693;BME280;70055;39.436;-77.514;2023-12-29T04:39:02;98590.35;;;9.87;43.37
80693;BME280;70055;39.436;-77.514;2023-12-29T04:41:32;98588.05;;;10.22;42.67
80693;BME280;70055;39.436;-77.514;2023-12-29T04:44:00;98584.20;;;9.52;44.05
80693;BME280;70055;39.436;-77.514;2023-12-29T04:46:28;98585.32;;;8.86;45.44
80693;BME280;70055;39.436;-77.514;2023-12-29T04:48:56;98585.24;;;9.57;43.79
80693;BME280;70055;39.436;-77.514;2023-12-29T04:51:24;98586.19;;;10.16;42.75
80693;BME280;70055;39.436;-77.514;2023-12-29T04:53:53;98586.99;;;9.42;44.55
80693;BME280;70055;39.436;-77.514;2023-12-29T04:56:21;98581.21;;;10.59;41.67
80693;BME280;70055;39.436;-77.514;2023-12-29T04:58:51;98584.75;;;10.54;41.42
80693;BME280;70055;39.436;-77.514;2023-12-29T05:01:20;98590.23;;;10.46;41.21
80693;BME280;70055;39.436;-77.514;2023-12-29T05:03:53;98585.70;;;10.55;41.53
80693;BME280;70055;39.436;-77.514;2023-12-29T05:06:24;98582.61;;;10.47;41.87
80693;BME280;70055;39.436;-77.514;2023-12-29T05:08:52;98581.42;;;10.12;42.89
80693;BME280;70055;39.436;-77.514;2023-12-29T05:11:21;98577.17;;;9.99;42.91
80693;BME280;70055;39.436;-77.514;2023-12-29T05:13:48;98574.48;;;9.21;45.55
80693;BME280;70055;39.436;-77.514;2023-12-29T05:16:16;98569.31;;;9.11;45.97
80693;BME280;70055;39.436;-77.514;2023-12-29T05:18:45;98566.91;;;8.82;46.52
80693;BME280;70055;39.436;-77.514;2023-12-29T05:21:17;98567.34;;;7.86;48.41
80693;BME280;70055;39.436;-77.514;2023-12-29T05:23:47;98561.09;;;9.67;44.53
80693;BME280;70055;39.436;-77.514;2023-12-29T05:26:18;98561.85;;;9.49;44.08
80693;BME280;70055;39.436;-77.514;2023-12-29T05:28:46;98560.59;;;10.06;44.02
80693;BME280;70055;39.436;-77.514;2023-12-29T05:31:14;98558.74;;;9.61;43.96
80693;BME280;70055;39.436;-77.514;2023-12-29T05:33:44;98559.65;;;9.60;43.97
80693;BME280;70055;39.436;-77.514;2023-12-29T05:36:12;98559.96;;;9.88;43.41
80693;BME280;70055;39.436;-77.514;2023-12-29T05:38:46;98563.08;;;9.77;43.38
80693;BME280;70055;39.436;-77.514;2023-12-29T05:41:15;98559.29;;;10.01;42.51
80693;BME280;70055;39.436;-77.514;2023-12-29T05:43:43;98557.41;;;10.22;42.16
80693;BME280;70055;39.436;-77.514;2023-12-29T05:46:12;98559.68;;;10.38;42.30
80693;BME280;70055;39.436;-77.514;2023-12-29T05:48:43;98560.37;;;10.46;42.65
80693;BME280;70055;39.436;-77.514;2023-12-29T05:51:13;98562.18;;;10.08;43.15
80693;BME280;70055;39.436;-77.514;2023-12-29T05:53:41;98555.17;;;9.09;45.23
80693;BME280;70055;39.436;-77.514;2023-12-29T05:56:13;98552.83;;;9.83;44.14
80693;BME280;70055;39.436;-77.514;2023-12-29T05:58:41;98550.41;;;9.25;44.92
80693;BME280;70055;39.436;-77.514;2023-12-29T06:01:10;98552.99;;;9.44;43.86
80693;BME280;70055;39.436;-77.514;2023-12-29T06:03:38;98560.08;;;8.02;46.41
80693;BME280;70055;39.436;-77.514;2023-12-29T06:06:06;98552.27;;;9.16;45.02
80693;BME280;70055;39.436;-77.514;2023-12-29T06:08:35;98555.38;;;8.69;45.95
80693;BME280;70055;39.436;-77.514;2023-12-29T06:11:04;98556.47;;;8.28;46.24
80693;BME280;70055;39.436;-77.514;2023-12-29T06:13:32;98556.94;;;7.41;48.81
80693;BME280;70055;39.436;-77.514;2023-12-29T06:16:00;98554.61;;;7.53;48.21
80693;BME280;70055;39.436;-77.514;2023-12-29T06:18:29;98553.52;;;7.08;49.44
80693;BME280;70055;39.436;-77.514;2023-12-29T06:20:57;98551.80;;;7.95;47.27
80693;BME280;70055;39.436;-77.514;2023-12-29T06:23:25;98556.82;;;7.40;48.93
80693;BME280;70055;39.436;-77.514;2023-12-29T06:25:53;98560.39;;;5.54;51.67
80693;BME280;70055;39.436;-77.514;2023-12-29T06:28:22;98555.90;;;5.11;54.40
80693;BME280;70055;39.436;-77.514;2023-12-29T06:30:50;98552.65;;;6.11;53.16
80693;BME280;70055;39.436;-77.514;2023-12-29T06:33:18;98551.94;;;6.38;52.85
80693;BME280;70055;39.436;-77.514;2023-12-29T06:35:47;98542.78;;;7.09;50.40
80693;BME280;70055;39.436;-77.514;2023-12-29T06:38:15;98543.68;;;6.83;50.88
80693;BME280;70055;39.436;-77.514;2023-12-29T06:40:43;98537.16;;;6.80;50.60
80693;BME280;70055;39.436;-77.514;2023-12-29T06:43:11;98540.77;;;7.82;48.53
80693;BME280;70055;39.436;-77.514;2023-12-29T06:45:39;98539.04;;;8.08;46.75
80693;BME280;70055;39.436;-77.514;2023-12-29T06:48:07;98537.44;;;8.35;45.91
80693;BME280;70055;39.436;-77.514;2023-12-29T06:50:36;98540.58;;;8.45;45.79
80693;BME280;70055;39.436;-77.514;2023-12-29T06:53:04;98544.91;;;7.80;47.65
80693;BME280;70055;39.436;-77.514;2023-12-29T06:55:33;98545.29;;;8.25;46.71
80693;BME280;70055;39.436;-77.514;2023-12-29T06:58:01;98546.19;;;8.12;46.53
80693;BME280;70055;39.436;-77.514;2023-12-29T07:00:29;98550.20;;;8.80;45.25
80693;BME280;70055;39.436;-77.514;2023-12-29T07:02:59;98559.56;;;8.51;45.44
80693;BME280;70055;39.436;-77.514;2023-12-29T07:05:28;98555.81;;;9.18;44.70
80693;BME280;70055;39.436;-77.514;2023-12-29T07:07:56;98564.65;;;8.73;45.03
80693;BME280;70055;39.436;-77.514;2023-12-29T07:10:24;98564.93;;;9.39;43.67
80693;BME280;70055;39.436;-77.514;2023-12-29T07:12:52;98563.20;;;9.15;43.29
80693;BME280;70055;39.436;-77.514;2023-12-29T07:15:20;98573.91;;;8.57;44.90
80693;BME280;70055;39.436;-77.514;2023-12-29T07:17:48;98572.22;;;9.21;43.46
80693;BME280;70055;39.436;-77.514;2023-12-29T07:20:15;98571.10;;;9.25;43.25
80693;BME280;70055;39.436;-77.514;2023-12-29T07:22:44;98571.13;;;9.60;42.86
80693;BME280;70055;39.436;-77.514;2023-12-29T07:25:12;98579.19;;;9.11;42.97
80693;BME280;70055;39.436;-77.514;2023-12-29T07:27:40;98585.10;;;8.42;44.21
80693;BME280;70055;39.436;-77.514;2023-12-29T07:30:09;98583.11;;;8.65;43.94
80693;BME280;70055;39.436;-77.514;2023-12-29T07:32:36;98590.78;;;7.92;46.60
80693;BME280;70055;39.436;-77.514;2023-12-29T07:35:05;98585.84;;;7.93;46.13
80693;BME280;70055;39.436;-77.514;2023-12-29T07:37:32;98582.96;;;6.67;48.46
80693;BME280;70055;39.436;-77.514;2023-12-29T07:40:04;98587.75;;;6.08;49.20
80693;BME280;70055;39.436;-77.514;2023-12-29T07:42:32;98584.63;;;8.18;46.16
80693;BME280;70055;39.436;-77.514;2023-12-29T07:45:01;98584.45;;;8.73;44.30
80693;BME280;70055;39.436;-77.514;2023-12-29T07:47:29;98585.27;;;9.36;43.08
80693;BME280;70055;39.436;-77.514;2023-12-29T07:49:56;98585.09;;;9.00;43.72
80693;BME280;70055;39.436;-77.514;2023-12-29T07:52:25;98586.21;;;8.76;43.96
80693;BME280;70055;39.436;-77.514;2023-12-29T07:54:53;98588.07;;;8.60;44.26
80693;BME280;70055;39.436;-77.514;2023-12-29T07:57:21;98590.67;;;8.65;44.47
80693;BME280;70055;39.436;-77.514;2023-12-29T07:59:51;98595.41;;;8.95;43.78
80693;BME280;70055;39.436;-77.514;2023-12-29T08:02:18;98594.59;;;8.70;43.63
80693;BME280;70055;39.436;-77.514;2023-12-29T08:04:46;98598.72;;;7.60;44.97
80693;BME280;70055;39.436;-77.514;2023-12-29T08:07:15;98597.47;;;8.82;42.87
80693;BME280;70055;39.436;-77.514;2023-12-29T08:09:43;98599.42;;;8.99;43.27
80693;BME280;70055;39.436;-77.514;2023-12-29T08:12:12;98600.56;;;8.70;43.83
80693;BME280;70055;39.436;-77.514;2023-12-29T08:14:40;98609.25;;;8.68;43.94
80693;BME280;70055;39.436;-77.514;2023-12-29T08:17:09;98610.03;;;7.97;45.57
80693;BME280;70055;39.436;-77.514;2023-12-29T08:19:38;98602.71;;;9.19;43.03
80693;BME280;70055;39.436;-77.514;2023-12-29T08:22:06;98606.44;;;8.49;44.28
80693;BME280;70055;39.436;-77.514;2023-12-29T08:24:36;98606.49;;;8.01;45.14
80693;BME280;70055;39.436;-77.514;2023-12-29T08:27:04;98601.15;;;8.91;44.02
80693;BME280;70055;39.436;-77.514;2023-12-29T08:29:32;98600.99;;;9.00;43.31
80693;BME280;70055;39.436;-77.514;2023-12-29T08:32:00;98608.04;;;7.75;45.33
80693;BME280;70055;39.436;-77.514;2023-12-29T08:34:29;98609.37;;;8.13;45.16
80693;BME280;70055;39.436;-77.514;2023-12-29T08:36:57;98605.56;;;8.09;44.84
80693;BME280;70055;39.436;-77.514;2023-12-29T08:39:25;98602.38;;;7.68;45.16
80693;BME280;70055;39.436;-77.514;2023-12-29T08:41:53;98598.83;;;8.60;44.30
80693;BME280;70055;39.436;-77.514;2023-12-29T08:44:22;98593.27;;;8.15;44.94
80693;BME280;70055;39.436;-77.514;2023-12-29T08:46:50;98586.05;;;8.78;43.43
80693;BME280;70055;39.436;-77.514;2023-12-29T08:49:19;98584.04;;;8.33;44.08
80693;BME280;70055;39.436;-77.514;2023-12-29T08:51:47;98586.69;;;7.60;45.62
80693;BME280;70055;39.436;-77.514;2023-12-29T08:54:16;98587.85;;;7.87;45.47
80693;BME280;70055;39.436;-77.514;2023-12-29T08:56:44;98589.93;;;7.41;45.73
80693;BME280;70055;39.436;-77.514;2023-12-29T08:59:12;98589.45;;;8.35;44.60
80693;BME280;70055;39.436;-77.514;2023-12-29T09:01:42;98590.41;;;8.28;44.46
80693;BME280;70055;39.436;-77.514;2023-12-29T09:04:11;98586.21;;;8.59;44.20
80693;BME280;70055;39.436;-77.514;2023-12-29T09:06:39;98588.43;;;8.29;45.45
80693;BME280;70055;39.436;-77.514;2023-12-29T09:09:07;98591.76;;;8.02;44.93
80693;BME280;70055;39.436;-77.514;2023-12-29T09:11:35;98593.57;;;8.52;44.50
80693;BME280;70055;39.436;-77.514;2023-12-29T09:14:03;98591.19;;;8.74;43.59
80693;BME280;70055;39.436;-77.514;2023-12-29T09:16:31;98590.92;;;9.05;43.83
80693;BME280;70055;39.436;-77.514;2023-12-29T09:19:01;98593.45;;;8.87;42.75
80693;BME280;70055;39.436;-77.514;2023-12-29T09:21:28;98594.59;;;8.73;43.07
80693;BME280;70055;39.436;-77.514;2023-12-29T09:23:57;98601.80;;;8.55;44.36
80693;BME280;70055;39.436;-77.514;2023-12-29T09:26:25;98604.61;;;8.08;44.49
80693;BME280;70055;39.436;-77.514;2023-12-29T09:28:53;98605.43;;;8.32;44.39
80693;BME280;70055;39.436;-77.514;2023-12-29T09:31:22;98607.59;;;8.46;44.15
80693;BME280;70055;39.436;-77.514;2023-12-29T09:33:51;98608.64;;;8.63;43.73
80693;BME280;70055;39.436;-77.514;2023-12-29T09:36:20;98607.90;;;8.44;43.90
80693;BME280;70055;39.436;-77.514;2023-12-29T09:38:48;98613.85;;;7.63;45.83
80693;BME280;70055;39.436;-77.514;2023-12-29T09:41:16;98609.61;;;6.25;49.75
80693;BME280;70055;39.436;-77.514;2023-12-29T09:43:46;98607.66;;;6.37;48.55
80693;BME280;70055;39.436;-77.514;2023-12-29T09:46:16;98606.24;;;7.82;45.61
80693;BME280;70055;39.436;-77.514;2023-12-29T09:48:46;98609.32;;;7.62;45.53
80693;BME280;70055;39.436;-77.514;2023-12-29T09:51:14;98610.05;;;7.82;45.51
80693;BME280;70055;39.436;-77.514;2023-12-29T09:53:44;98607.98;;;7.92;44.96
80693;BME280;70055;39.436;-77.514;2023-12-29T09:56:13;98606.62;;;8.18;43.87
80693;BME280;70055;39.436;-77.514;2023-12-29T09:58:42;98609.46;;;8.62;43.58
80693;BME280;70055;39.436;-77.514;2023-12-29T10:01:11;98610.06;;;8.11;44.36
80693;BME280;70055;39.436;-77.514;2023-12-29T10:03:39;98603.69;;;8.34;43.11
80693;BME280;70055;39.436;-77.514;2023-12-29T10:06:07;98605.73;;;5.91;48.13
80693;BME280;70055;39.436;-77.514;2023-12-29T10:08:37;98604.99;;;4.83;51.87
80693;BME280;70055;39.436;-77.514;2023-12-29T10:11:06;98602.28;;;7.13;47.12
80693;BME280;70055;39.436;-77.514;2023-12-29T10:13:36;98607.14;;;7.71;45.06
80693;BME280;70055;39.436;-77.514;2023-12-29T10:16:12;98612.77;;;8.03;45.12
80693;BME280;70055;39.436;-77.514;2023-12-29T10:18:49;98613.03;;;7.80;44.82
80693;BME280;70055;39.436;-77.514;2023-12-29T10:21:29;98613.53;;;7.91;44.38
80693;BME280;70055;39.436;-77.514;2023-12-29T10:24:08;98611.64;;;7.63;44.47
80693;BME280;70055;39.436;-77.514;2023-12-29T10:26:39;98612.91;;;7.03;45.20
80693;BME280;70055;39.436;-77.514;2023-12-29T10:29:08;98612.80;;;6.73;46.05
80693;BME280;70055;39.436;-77.514;2023-12-29T10:31:36;98613.19;;;7.31;45.29
80693;BME280;70055;39.436;-77.514;2023-12-29T10:34:19;98616.54;;;6.65;46.67
80693;BME280;70055;39.436;-77.514;2023-12-29T10:36:49;98619.66;;;6.22;47.70
80693;BME280;70055;39.436;-77.514;2023-12-29T10:39:17;98618.47;;;6.72;47.06
80693;BME280;70055;39.436;-77.514;2023-12-29T10:41:45;98623.19;;;6.20;47.22
80693;BME280;70055;39.436;-77.514;2023-12-29T10:44:13;98619.32;;;6.65;46.73
80693;BME280;70055;39.436;-77.514;2023-12-29T10:46:41;98620.73;;;7.39;45.43
80693;BME280;70055;39.436;-77.514;2023-12-29T10:49:10;98625.41;;;7.28;45.93
80693;BME280;70055;39.436;-77.514;2023-12-29T10:51:40;98633.11;;;6.56;46.97
80693;BME280;70055;39.436;-77.514;2023-12-29T10:54:08;98633.38;;;5.99;48.26
80693;BME280;70055;39.436;-77.514;2023-12-29T10:56:46;98629.27;;;6.10;48.78
80693;BME280;70055;39.436;-77.514;2023-12-29T10:59:15;98627.93;;;5.28;50.00
80693;BME280;70055;39.436;-77.514;2023-12-29T11:01:43;98634.58;;;5.93;49.28
80693;BME280;70055;39.436;-77.514;2023-12-29T11:04:10;98637.52;;;6.00;48.86
80693;BME280;70055;39.436;-77.514;2023-12-29T11:06:42;98640.72;;;5.85;49.30
80693;BME280;70055;39.436;-77.514;2023-12-29T11:09:11;98641.36;;;6.72;47.98
80693;BME280;70055;39.436;-77.514;2023-12-29T11:11:40;98646.64;;;6.45;47.82
80693;BME280;70055;39.436;-77.514;2023-12-29T11:14:12;98651.21;;;7.19;46.63
80693;BME280;70055;39.436;-77.514;2023-12-29T11:16:43;98659.52;;;6.53;47.63
80693;BME280;70055;39.436;-77.514;2023-12-29T11:19:13;98664.36;;;6.46;47.98
80693;BME280;70055;39.436;-77.514;2023-12-29T11:21:42;98669.96;;;6.49;47.76
80693;BME280;70055;39.436;-77.514;2023-12-29T11:24:13;98669.48;;;6.49;47.69
80693;BME280;70055;39.436;-77.514;2023-12-29T11:26:43;98669.72;;;6.08;47.91
80693;BME280;70055;39.436;-77.514;2023-12-29T11:29:12;98668.57;;;6.48;47.71
80693;BME280;70055;39.436;-77.514;2023-12-29T11:31:40;98666.32;;;6.53;47.35
80693;BME280;70055;39.436;-77.514;2023-12-29T11:34:12;98663.21;;;6.66;46.89
80693;BME280;70055;39.436;-77.514;2023-12-29T11:36:45;98658.53;;;6.68;47.35
80693;BME280;70055;39.436;-77.514;2023-12-29T11:39:20;98658.16;;;5.63;48.75
80693;BME280;70055;39.436;-77.514;2023-12-29T11:41:59;98659.94;;;6.00;48.70
80693;BME280;70055;39.436;-77.514;2023-12-29T11:44:29;98657.94;;;6.73;47.14
80693;BME280;70055;39.436;-77.514;2023-12-29T11:46:57;98661.65;;;6.97;47.19
80693;BME280;70055;39.436;-77.514;2023-12-29T11:49:26;98658.13;;;6.92;46.93
80693;BME280;70055;39.436;-77.514;2023-12-29T11:51:54;98654.21;;;6.67;47.17
80693;BME280;70055;39.436;-77.514;2023-12-29T11:54:25;98655.22;;;6.89;46.73
80693;BME280;70055;39.436;-77.514;2023-12-29T11:56:56;98654.95;;;6.79;47.06
80693;BME280;70055;39.436;-77.514;2023-12-29T11:59:25;98654.86;;;6.41;46.68
80693;BME280;70055;39.436;-77.514;2023-12-29T12:01:54;98652.75;;;6.87;46.10
80693;BME280;70055;39.436;-77.514;2023-12-29T12:04:38;98655.05;;;6.99;46.09
80693;BME280;70055;39.436;-77.514;2023-12-29T12:07:13;98652.36;;;7.79;44.80
80693;BME280;70055;39.436;-77.514;2023-12-29T12:09:41;98652.61;;;6.49;46.35
80693;BME280;70055;39.436;-77.514;2023-12-29T12:12:10;98652.42;;;5.03;49.49
80693;BME280;70055;39.436;-77.514;2023-12-29T12:14:54;98654.86;;;4.86;50.92
80693;BME280;70055;39.436;-77.514;2023-12-29T12:17:30;98653.39;;;6.29;47.49
80693;BME280;70055;39.436;-77.514;2023-12-29T12:20:02;98652.75;;;6.35;47.18
80693;BME280;70055;39.436;-77.514;2023-12-29T12:22:32;98656.35;;;6.09;47.19
80693;BME280;70055;39.436;-77.514;2023-12-29T12:25:00;98662.14;;;5.98;47.31
80693;BME280;70055;39.436;-77.514;2023-12-29T12:27:28;98667.22;;;5.86;47.84
80693;BME280;70055;39.436;-77.514;2023-12-29T12:29:58;98669.27;;;5.86;48.29
80693;BME280;70055;39.436;-77.514;2023-12-29T12:32:29;98672.71;;;6.06;48.33
80693;BME280;70055;39.436;-77.514;2023-12-29T12:34:57;98672.36;;;6.29;46.98
80693;BME280;70055;39.436;-77.514;2023-12-29T12:37:27;98672.26;;;5.43;48.37
80693;BME280;70055;39.436;-77.514;2023-12-29T12:39:56;98671.19;;;4.60;50.20
80693;BME280;70055;39.436;-77.514;2023-12-29T12:42:23;98668.52;;;4.60;50.92
80693;BME280;70055;39.436;-77.514;2023-12-29T12:44:56;98666.83;;;4.63;50.72
80693;BME280;70055;39.436;-77.514;2023-12-29T12:47:34;98664.29;;;5.56;49.08
80693;BME280;70055;39.436;-77.514;2023-12-29T12:50:08;98665.45;;;4.94;49.59
80693;BME280;70055;39.436;-77.514;2023-12-29T12:52:36;98673.37;;;3.42;52.67
80693;BME280;70055;39.436;-77.514;2023-12-29T12:55:06;98667.44;;;5.33;49.72
80693;BME280;70055;39.436;-77.514;2023-12-29T12:57:35;98665.95;;;5.62;49.06